Time;durP1;ratioP1;P1;durP2;ratioP2;P2;SDS_P1;SDS_P2;PMS_P1;PMS_P2;Temp;Humidity;BMP_temperature;BMP_pressure;BME280_temperature;BME280_humidity;BME280_pressure;Samples;Min_cycle;Max_cycle;Signal;HPM_P1;HPM_P2
2022/11/02 00:01:40;;;;;;;6.50;2.97;;;;;;;;;;5016168;28;20235;-91
2022/11/02 00:04:07;;;;;;;5.57;2.80;;;;;;;;;;5015859;28;20730;-90
2022/11/02 00:06:34;;;;;;;9.03;2.57;;;;;;;;;;5015613;28;20239;-90
2022/11/02 00:09:01;;;;;;;3.77;2.63;;;;;;;;;;5015809;28;20826;-91
2022/11/02 00:11:28;;;;;;;6.40;2.90;;;;;;;;;;5015569;28;20235;-91
2022/11/02 00:13:56;;;;;;;6.33;2.90;;;;;;;;;;5015476;28;20239;-91
2022/11/02 00:16:24;;;;;;;4.10;2.70;;;;;;;;;;5015264;28;20207;-90
2022/11/02 00:18:52;;;;;;;4.13;2.60;;;;;;;;;;5015796;28;20211;-91
2022/11/02 00:21:20;;;;;;;7.97;2.63;;;;;;;;;;5015345;28;20207;-90
2022/11/02 00:23:47;;;;;;;6.13;2.40;;;;;;;;;;5015802;28;20318;-90
2022/11/02 00:26:15;;;;;;;7.37;2.80;;;;;;;;;;5015122;28;20212;-91
2022/11/02 00:28:42;;;;;;;2.67;2.13;;;;;;;;;;5015667;28;20219;-91
2022/11/02 00:31:10;;;;;;;6.47;2.50;;;;;;;;;;5000240;28;20665;-90
2022/11/02 00:33:37;;;;;;;7.67;2.27;;;;;;;;;;5011394;28;20238;-91
2022/11/02 00:36:35;;;;;;;3.60;2.37;;;;;;;;;;5015366;28;20211;-91
2022/11/02 00:39:02;;;;;;;4.33;2.37;;;;;;;;;;4992899;28;20220;-91
2022/11/02 00:41:29;;;;;;;7.17;3.17;;;;;;;;;;5006126;28;20722;-91
2022/11/02 00:43:56;;;;;;;3.13;2.07;;;;;;;;;;5015429;28;20239;-91
2022/11/02 00:46:25;;;;;;;5.53;2.10;;;;;;;;;;5017104;28;20222;-90
2022/11/02 00:48:52;;;;;;;5.37;2.23;;;;;;;;;;5022013;28;20204;-91
2022/11/02 00:51:19;;;;;;;5.70;2.33;;;;;;;;;;5025851;28;20195;-90
2022/11/02 00:53:46;;;;;;;5.90;2.27;;;;;;;;;;5009563;28;20228;-91
2022/11/02 00:56:13;;;;;;;9.50;2.20;;;;;;;;;;5012649;28;20203;-91
2022/11/02 00:58:40;;;;;;;3.83;2.10;;;;;;;;;;5014797;28;20751;-91
2022/11/02 01:01:08;;;;;;;5.10;2.20;;;;;;;;;;5014704;28;20206;-90
2022/11/02 01:03:36;;;;;;;4.03;2.17;;;;;;;;;;5014882;28;20230;-90
2022/11/02 01:06:08;;;;;;;5.80;2.00;;;;;;;;;;5014824;28;20266;-90
2022/11/02 01:08:35;;;;;;;4.77;2.30;;;;;;;;;;5015026;28;20231;-90
2022/11/02 01:11:09;;;;;;;3.57;2.57;;;;;;;;;;5015199;28;20206;-90
2022/11/02 01:13:36;;;;;;;9.00;2.70;;;;;;;;;;5015057;28;20234;-91
2022/11/02 01:16:04;;;;;;;7.20;2.67;;;;;;;;;;5015695;28;20231;-92
2022/11/02 01:18:31;;;;;;;5.93;2.37;;;;;;;;;;5014881;28;20227;-91
2022/11/02 01:20:59;;;;;;;8.97;2.20;;;;;;;;;;5033999;28;20218;-91
2022/11/02 01:23:26;;;;;;;3.57;2.40;;;;;;;;;;5037147;28;20318;-89
2022/11/02 01:25:53;;;;;;;6.10;2.40;;;;;;;;;;5036830;28;20219;-92
2022/11/02 01:28:21;;;;;;;4.93;1.90;;;;;;;;;;5036370;28;20231;-91
2022/11/02 01:30:48;;;;;;;6.03;2.50;;;;;;;;;;5037131;28;20247;-91
2022/11/02 01:33:15;;;;;;;9.83;2.47;;;;;;;;;;5033285;28;20222;-90
2022/11/02 01:35:42;;;;;;;5.90;2.30;;;;;;;;;;5015537;28;20211;-91
2022/11/02 01:38:11;;;;;;;9.03;2.43;;;;;;;;;;5013987;28;20227;-92
2022/11/02 01:40:38;;;;;;;4.37;2.33;;;;;;;;;;5014654;28;20302;-91
2022/11/02 01:43:19;;;;;;;4.17;1.90;;;;;;;;;;5037554;22;20285;-80
2022/11/02 01:45:47;;;;;;;5.60;2.57;;;;;;;;;;5006297;28;20210;-80
2022/11/02 01:48:14;;;;;;;7.13;2.27;;;;;;;;;;5028878;28;20234;-80
2022/11/02 01:50:41;;;;;;;8.83;2.40;;;;;;;;;;5033641;28;20207;-79
2022/11/02 01:53:09;;;;;;;5.33;1.87;;;;;;;;;;5032666;28;20238;-80
2022/11/02 01:55:38;;;;;;;5.33;2.67;;;;;;;;;;5032945;28;20203;-79
2022/11/02 01:58:08;;;;;;;5.13;2.33;;;;;;;;;;5024280;28;20235;-79
2022/11/02 02:00:36;;;;;;;3.90;1.93;;;;;;;;;;5014819;28;20607;-80
2022/11/02 02:03:06;;;;;;;4.47;2.10;;;;;;;;;;5009761;28;20354;-80
2022/11/02 02:05:34;;;;;;;4.13;1.80;;;;;;;;;;5011598;28;20589;-80
2022/11/02 02:08:02;;;;;;;3.70;2.07;;;;;;;;;;5013132;28;20246;-80
2022/11/02 02:10:29;;;;;;;5.87;2.20;;;;;;;;;;5012687;28;20214;-79
2022/11/02 02:12:58;;;;;;;7.20;2.23;;;;;;;;;;5012113;28;20238;-80
2022/11/02 02:15:27;;;;;;;5.20;2.37;;;;;;;;;;5016057;28;20207;-82
2022/11/02 02:17:58;;;;;;;6.40;2.33;;;;;;;;;;4994495;28;20243;-82
2022/11/02 02:20:33;;;;;;;4.47;2.13;;;;;;;;;;4993440;28;20299;-83
2022/11/02 02:23:20;;;;;;;4.80;2.07;;;;;;;;;;4996067;28;20251;-82
2022/11/02 02:26:01;;;;;;;6.77;2.03;;;;;;;;;;5029667;28;20192;-81
2022/11/02 02:28:33;;;;;;;7.53;2.53;;;;;;;;;;5012234;28;20231;-82
2022/11/02 02:31:04;;;;;;;10.73;2.43;;;;;;;;;;5013809;28;20632;-82
2022/11/02 02:33:33;;;;;;;5.37;2.50;;;;;;;;;;5018437;28;20246;-82
2022/11/02 02:36:03;;;;;;;4.17;2.17;;;;;;;;;;5014284;28;20234;-82
2022/11/02 02:38:33;;;;;;;8.43;3.23;;;;;;;;;;5012198;28;20893;-82
2022/11/02 02:41:04;;;;;;;9.23;2.40;;;;;;;;;;5014333;28;20581;-82
2022/11/02 02:43:37;;;;;;;6.23;1.90;;;;;;;;;;5012497;28;20247;-82
2022/11/02 02:46:07;;;;;;;7.90;2.00;;;;;;;;;;5012878;28;20558;-82
2022/11/02 02:48:35;;;;;;;4.80;1.97;;;;;;;;;;5013223;28;20219;-82
2022/11/02 02:51:03;;;;;;;4.53;2.27;;;;;;;;;;5014897;28;20227;-82
2022/11/02 02:53:32;;;;;;;5.07;2.07;;;;;;;;;;5011476;28;20235;-82
2022/11/02 02:56:01;;;;;;;8.37;2.37;;;;;;;;;;5012337;28;20211;-82
2022/11/02 02:58:30;;;;;;;5.13;1.90;;;;;;;;;;5012397;28;20242;-82
2022/11/02 03:01:12;;;;;;;5.00;2.20;;;;;;;;;;5012808;28;20565;-81
2022/11/02 03:03:41;;;;;;;3.90;1.80;;;;;;;;;;4992162;28;20239;-83
2022/11/02 03:06:15;;;;;;;6.87;2.00;;;;;;;;;;4992572;28;20227;-83
2022/11/02 03:08:44;;;;;;;4.00;2.20;;;;;;;;;;5012486;28;20195;-82
2022/11/02 03:11:13;;;;;;;7.10;2.40;;;;;;;;;;5011962;28;20318;-82
2022/11/02 03:13:43;;;;;;;7.60;2.17;;;;;;;;;;5012425;28;20785;-82
2022/11/02 03:16:22;;;;;;;7.90;2.23;;;;;;;;;;5019112;28;20567;-82
2022/11/02 03:18:53;;;;;;;5.20;2.43;;;;;;;;;;5016259;28;20567;-82
2022/11/02 03:21:26;;;;;;;7.87;2.60;;;;;;;;;;5016020;28;20192;-82
2022/11/02 03:23:56;;;;;;;2.17;1.90;;;;;;;;;;5016717;28;20707;-82
2022/11/02 03:26:25;;;;;;;11.47;2.20;;;;;;;;;;5015692;28;20241;-82
2022/11/02 03:28:58;;;;;;;4.93;2.20;;;;;;;;;;5270181;22;20294;-82
2022/11/02 03:31:32;;;;;;;9.33;2.10;;;;;;;;;;5035074;28;20223;-83
2022/11/02 03:34:03;;;;;;;6.20;2.20;;;;;;;;;;5038016;28;20214;-82
2022/11/02 03:36:34;;;;;;;8.97;2.30;;;;;;;;;;5929700;23;20198;-83
2022/11/02 03:39:06;;;;;;;8.43;2.73;;;;;;;;;;5083401;28;20177;-80
2022/11/02 03:51:59;;;;;;;12.40;2.80;;;;;;;;;;5235068;22;20234;-84
2022/11/02 03:54:30;;;;;;;4.03;2.20;;;;;;;;;;5034354;28;20370;-84
2022/11/02 03:56:59;;;;;;;4.40;2.10;;;;;;;;;;5034434;28;20241;-84
2022/11/02 03:59:26;;;;;;;7.40;2.27;;;;;;;;;;5015557;28;20211;-84
2022/11/02 04:01:53;;;;;;;6.90;2.00;;;;;;;;;;5014121;28;20734;-84
2022/11/02 04:04:20;;;;;;;6.40;2.17;;;;;;;;;;5015903;28;20199;-92
2022/11/02 04:06:48;;;;;;;8.07;2.50;;;;;;;;;;5015014;28;20238;-89
2022/11/02 04:09:17;;;;;;;7.70;2.40;;;;;;;;;;5015343;28;20209;-89
2022/11/02 04:14:37;;;;;;;5.80;2.40;;;;;;;;;;5017636;28;20597;-89
2022/11/02 04:19:50;;;;;;;6.60;2.20;;;;;;;;;;5034993;28;20189;-89
2022/11/02 04:25:17;;;;;;;5.60;2.90;;;;;;;;;;5025729;28;20249;-90
2022/11/02 04:27:44;;;;;;;7.00;2.37;;;;;;;;;;5014749;28;20255;-89
2022/11/02 04:30:12;;;;;;;9.13;2.50;;;;;;;;;;5015102;28;20222;-90
2022/11/02 04:35:24;;;;;;;7.07;2.27;;;;;;;;;;5014996;28;20346;-90
2022/11/02 04:40:37;;;;;;;7.30;2.33;;;;;;;;;;5014796;28;20226;-88
2022/11/02 04:43:04;;;;;;;5.13;2.20;;;;;;;;;;5014482;28;20235;-89
2022/11/02 04:45:31;;;;;;;8.40;4.63;;;;;;;;;;5014628;28;20199;-89
2022/11/02 04:48:01;;;;;;;7.53;2.77;;;;;;;;;;5032168;28;20238;-88
2022/11/02 04:50:29;;;;;;;5.40;2.40;;;;;;;;;;5034216;28;20261;-88
2022/11/02 04:52:57;;;;;;;15.83;3.47;;;;;;;;;;5021590;28;20243;-89
2022/11/02 04:55:24;;;;;;;6.47;2.47;;;;;;;;;;5014440;28;20235;-89
2022/11/02 04:57:52;;;;;;;5.83;2.17;;;;;;;;;;5014045;28;20242;-89
2022/11/02 05:00:20;;;;;;;5.47;2.10;;;;;;;;;;5015714;28;20339;-89
2022/11/02 05:02:47;;;;;;;12.63;3.20;;;;;;;;;;5024296;28;20242;-89
2022/11/02 05:05:14;;;;;;;8.03;2.40;;;;;;;;;;5014612;28;20204;-89
2022/11/02 05:07:43;;;;;;;4.93;2.50;;;;;;;;;;5013315;28;20239;-92
2022/11/02 05:10:10;;;;;;;4.50;2.20;;;;;;;;;;5014405;28;20211;-91
2022/11/02 05:12:37;;;;;;;7.93;2.60;;;;;;;;;;5023747;28;20238;-90
2022/11/02 05:15:06;;;;;;;9.23;2.30;;;;;;;;;;5013421;28;20959;-88
2022/11/02 05:17:33;;;;;;;7.50;2.57;;;;;;;;;;5050253;28;20238;-88
2022/11/02 05:20:00;;;;;;;8.07;2.60;;;;;;;;;;5053446;28;20677;-88
2022/11/02 05:22:27;;;;;;;8.10;2.33;;;;;;;;;;5045881;28;20226;-88
2022/11/02 05:24:55;;;;;;;6.40;2.27;;;;;;;;;;5013718;28;20204;-88
2022/11/02 05:27:22;;;;;;;5.83;2.53;;;;;;;;;;5016185;28;20729;-88
2022/11/02 05:29:49;;;;;;;6.60;2.40;;;;;;;;;;5024173;28;20258;-88
2022/11/02 05:32:17;;;;;;;5.57;2.13;;;;;;;;;;5014566;28;20230;-88
2022/11/02 05:34:44;;;;;;;9.67;2.70;;;;;;;;;;5013986;28;20230;-85
2022/11/02 05:37:12;;;;;;;3.23;2.07;;;;;;;;;;5030501;28;20245;-88
2022/11/02 05:39:39;;;;;;;11.50;2.47;;;;;;;;;;5043750;28;20209;-88
2022/11/02 05:42:06;;;;;;;6.70;2.50;;;;;;;;;;5052555;28;20233;-88
2022/11/02 05:44:33;;;;;;;10.73;3.77;;;;;;;;;;5035615;28;20207;-89
2022/11/02 05:47:00;;;;;;;5.93;2.27;;;;;;;;;;5032880;28;20241;-89
2022/11/02 05:49:29;;;;;;;7.67;2.10;;;;;;;;;;5028633;28;20682;-87
2022/11/02 05:51:56;;;;;;;5.87;2.63;;;;;;;;;;5032170;28;20239;-85
2022/11/02 05:54:23;;;;;;;8.40;2.30;;;;;;;;;;5031720;28;20223;-87
2022/11/02 05:56:50;;;;;;;6.93;2.33;;;;;;;;;;5018950;28;20231;-87
2022/11/02 05:59:17;;;;;;;8.07;2.30;;;;;;;;;;5030790;28;20690;-83
2022/11/02 06:01:44;;;;;;;9.13;2.67;;;;;;;;;;5018101;28;20238;-84
2022/11/02 06:04:11;;;;;;;8.70;2.70;;;;;;;;;;5031504;28;20211;-84
2022/11/02 06:06:39;;;;;;;7.77;2.30;;;;;;;;;;5012298;28;20246;-83
2022/11/02 06:09:07;;;;;;;7.27;2.47;;;;;;;;;;5012567;28;20208;-84
2022/11/02 06:11:34;;;;;;;8.67;2.50;;;;;;;;;;5010917;28;20587;-82
2022/11/02 06:14:02;;;;;;;9.67;2.97;;;;;;;;;;5012047;28;20207;-83
2022/11/02 06:16:29;;;;;;;3.47;1.90;;;;;;;;;;5013559;28;20710;-82
2022/11/02 06:18:56;;;;;;;5.57;2.10;;;;;;;;;;5032028;28;20678;-84
2022/11/02 06:21:23;;;;;;;7.53;3.10;;;;;;;;;;5031979;28;20642;-80
2022/11/02 06:23:52;;;;;;;9.77;2.87;;;;;;;;;;5032025;28;20207;-81
2022/11/02 06:26:19;;;;;;;7.03;2.37;;;;;;;;;;5031539;28;20207;-82
2022/11/02 06:28:46;;;;;;;5.43;2.63;;;;;;;;;;5032085;28;20543;-82
2022/11/02 06:31:16;;;;;;;6.93;2.47;;;;;;;;;;5031724;28;20235;-82
2022/11/02 06:33:43;;;;;;;5.87;2.20;;;;;;;;;;5031763;28;20306;-81
2022/11/02 06:36:11;;;;;;;5.60;2.70;;;;;;;;;;5026455;28;20231;-82
2022/11/02 06:38:38;;;;;;;4.97;2.17;;;;;;;;;;5011941;28;20269;-81
2022/11/02 06:41:07;;;;;;;10.97;2.70;;;;;;;;;;5011619;28;20604;-82
2022/11/02 06:43:36;;;;;;;8.27;2.27;;;;;;;;;;5017173;28;20201;-82
2022/11/02 06:46:04;;;;;;;4.23;2.47;;;;;;;;;;5030674;28;20747;-83
2022/11/02 06:48:32;;;;;;;7.77;2.60;;;;;;;;;;5031723;28;20203;-83
2022/11/02 06:50:59;;;;;;;6.87;2.20;;;;;;;;;;5031350;28;20238;-83
2022/11/02 06:53:26;;;;;;;7.67;2.10;;;;;;;;;;5028178;28;20235;-83
2022/11/02 06:55:53;;;;;;;9.67;2.30;;;;;;;;;;5020818;28;20231;-83
2022/11/02 06:58:23;;;;;;;9.17;2.10;;;;;;;;;;5030192;28;20235;-83
2022/11/02 07:00:50;;;;;;;6.67;2.20;;;;;;;;;;5030978;28;20741;-83
2022/11/02 07:03:17;;;;;;;6.33;2.30;;;;;;;;;;5030755;28;20243;-83
2022/11/02 07:05:52;;;;;;;11.43;3.60;;;;;;;;;;5030510;28;20203;-83
2022/11/02 07:08:19;;;;;;;7.00;2.53;;;;;;;;;;5030306;28;20237;-84
2022/11/02 07:10:46;;;;;;;6.87;2.93;;;;;;;;;;5030894;28;20313;-84
2022/11/02 07:13:14;;;;;;;6.67;2.87;;;;;;;;;;5030381;28;20249;-83
2022/11/02 07:15:42;;;;;;;6.57;2.53;;;;;;;;;;5030918;28;20211;-84
2022/11/02 07:18:09;;;;;;;6.90;2.60;;;;;;;;;;5030149;28;20239;-83
2022/11/02 07:20:37;;;;;;;7.57;2.53;;;;;;;;;;5031170;28;20242;-84
2022/11/02 07:23:04;;;;;;;8.37;2.70;;;;;;;;;;5030697;28;20277;-84
2022/11/02 07:25:32;;;;;;;7.07;3.07;;;;;;;;;;5022745;28;20241;-83
2022/11/02 07:28:00;;;;;;;6.97;2.23;;;;;;;;;;5030472;28;20268;-84
2022/11/02 07:30:27;;;;;;;12.30;3.30;;;;;;;;;;5028103;28;20245;-84
2022/11/02 07:32:55;;;;;;;5.90;2.47;;;;;;;;;;5027288;28;20257;-83
2022/11/02 07:35:22;;;;;;;9.03;2.73;;;;;;;;;;5030696;28;20728;-84
2022/11/02 07:37:56;;;;;;;8.10;2.50;;;;;;;;;;5029544;28;20629;-85
2022/11/02 07:40:23;;;;;;;10.07;3.00;;;;;;;;;;5031263;28;20257;-85
2022/11/02 07:42:52;;;;;;;5.20;2.20;;;;;;;;;;5032743;28;20235;-85
2022/11/02 07:45:20;;;;;;;9.97;3.10;;;;;;;;;;5030796;28;20207;-84
2022/11/02 07:47:47;;;;;;;7.03;2.80;;;;;;;;;;5029911;28;20772;-84
2022/11/02 07:50:16;;;;;;;5.33;2.77;;;;;;;;;;5030573;28;20223;-84
2022/11/02 07:52:44;;;;;;;9.23;3.70;;;;;;;;;;5030172;28;20226;-84
2022/11/02 07:55:11;;;;;;;7.60;2.73;;;;;;;;;;5030752;28;20257;-82
2022/11/02 07:57:38;;;;;;;5.80;2.57;;;;;;;;;;5029946;28;20235;-84
2022/11/02 08:00:06;;;;;;;5.67;2.63;;;;;;;;;;5031657;28;20634;-83
2022/11/02 08:02:33;;;;;;;8.90;2.70;;;;;;;;;;5033775;28;20250;-82
2022/11/02 08:05:00;;;;;;;6.87;2.30;;;;;;;;;;5034357;28;20706;-83
2022/11/02 08:07:29;;;;;;;4.90;2.10;;;;;;;;;;5033931;28;20241;-83
2022/11/02 08:09:56;;;;;;;8.40;2.40;;;;;;;;;;5034065;28;20210;-83
2022/11/02 08:12:23;;;;;;;7.33;3.13;;;;;;;;;;5033535;28;20237;-83
2022/11/02 08:14:50;;;;;;;8.17;2.37;;;;;;;;;;5034417;28;20231;-83
2022/11/02 08:17:18;;;;;;;11.73;2.43;;;;;;;;;;5033457;28;20246;-83
2022/11/02 08:19:45;;;;;;;10.70;3.00;;;;;;;;;;5033883;28;20234;-83
2022/11/02 08:22:12;;;;;;;5.33;2.60;;;;;;;;;;5020372;28;20251;-84
2022/11/02 08:24:40;;;;;;;5.20;2.40;;;;;;;;;;5016039;28;20208;-84
2022/11/02 08:27:08;;;;;;;12.00;2.53;;;;;;;;;;5024431;28;20612;-85
2022/11/02 08:29:35;;;;;;;9.63;2.40;;;;;;;;;;5033490;28;20209;-84
2022/11/02 08:32:02;;;;;;;7.23;2.27;;;;;;;;;;5036468;28;20286;-84
2022/11/02 08:34:30;;;;;;;6.37;2.67;;;;;;;;;;5036516;28;20199;-84
2022/11/02 08:36:57;;;;;;;8.00;2.20;;;;;;;;;;5033428;28;20249;-84
2022/11/02 08:39:24;;;;;;;9.67;2.60;;;;;;;;;;5033443;28;20559;-84
2022/11/02 08:41:52;;;;;;;6.53;2.50;;;;;;;;;;5033168;28;20258;-83
2022/11/02 08:44:20;;;;;;;9.50;2.50;;;;;;;;;;5030951;28;20207;-83
2022/11/02 08:46:47;;;;;;;7.43;2.57;;;;;;;;;;5028561;28;20235;-82
2022/11/02 08:49:17;;;;;;;4.80;2.30;;;;;;;;;;5026267;28;20717;-81
2022/11/02 08:51:44;;;;;;;6.77;3.13;;;;;;;;;;5032241;28;20309;-83
2022/11/02 08:54:11;;;;;;;8.17;2.20;;;;;;;;;;5033373;28;20213;-82
2022/11/02 08:56:38;;;;;;;8.57;3.00;;;;;;;;;;5032966;28;21036;-84
2022/11/02 08:59:07;;;;;;;5.10;2.27;;;;;;;;;;5033002;28;20643;-82
2022/11/02 09:01:34;;;;;;;8.87;2.67;;;;;;;;;;5029495;28;20612;-82
2022/11/02 09:04:02;;;;;;;9.80;2.20;;;;;;;;;;5033236;28;20659;-82
2022/11/02 09:06:29;;;;;;;7.37;2.80;;;;;;;;;;5032697;28;20618;-81
2022/11/02 09:08:56;;;;;;;6.80;2.60;;;;;;;;;;5032970;28;20237;-82
2022/11/02 09:11:23;;;;;;;12.93;2.73;;;;;;;;;;5031854;28;21909;-82
2022/11/02 09:13:50;;;;;;;5.67;2.10;;;;;;;;;;5033346;28;20221;-83
2022/11/02 09:16:19;;;;;;;6.03;2.13;;;;;;;;;;5032494;28;20242;-83
2022/11/02 09:18:46;;;;;;;7.53;2.93;;;;;;;;;;5013376;28;20209;-82
2022/11/02 09:21:13;;;;;;;7.60;2.93;;;;;;;;;;5015444;28;20223;-84
2022/11/02 09:23:40;;;;;;;8.13;2.40;;;;;;;;;;5033227;28;20203;-82
2022/11/02 09:26:07;;;;;;;7.13;2.80;;;;;;;;;;5032785;28;20210;-82
2022/11/02 09:28:34;;;;;;;10.00;2.57;;;;;;;;;;5032570;28;20221;-82
2022/11/02 09:31:01;;;;;;;6.23;2.20;;;;;;;;;;5032926;28;20237;-83
2022/11/02 09:33:31;;;;;;;7.73;2.33;;;;;;;;;;5032338;28;20234;-82
2022/11/02 09:36:02;;;;;;;13.37;2.20;;;;;;;;;;5033045;28;20230;-83
2022/11/02 09:38:29;;;;;;;6.97;2.63;;;;;;;;;;5032570;28;20215;-83
2022/11/02 09:41:05;;;;;;;9.37;2.67;;;;;;;;;;5032808;28;20226;-83
2022/11/02 09:43:38;;;;;;;5.50;2.30;;;;;;;;;;5032325;28;20214;-83
2022/11/02 09:46:06;;;;;;;7.90;2.13;;;;;;;;;;5027618;28;20301;-84
2022/11/02 09:48:37;;;;;;;7.07;1.93;;;;;;;;;;5033060;28;20199;-83
2022/11/02 09:51:07;;;;;;;4.97;2.27;;;;;;;;;;5028411;28;20247;-84
2022/11/02 09:53:39;;;;;;;6.73;2.07;;;;;;;;;;5052777;28;20558;-83
2022/11/02 09:56:07;;;;;;;6.67;1.83;;;;;;;;;;5051923;28;20677;-83
2022/11/02 09:58:36;;;;;;;4.80;1.77;;;;;;;;;;5052413;28;20201;-83
2022/11/02 10:01:06;;;;;;;6.67;2.13;;;;;;;;;;5052422;28;20222;-83
2022/11/02 10:03:42;;;;;;;6.80;2.20;;;;;;;;;;5052223;28;20241;-82
2022/11/02 10:06:12;;;;;;;7.13;1.93;;;;;;;;;;5051747;28;20196;-83
2022/11/02 10:08:43;;;;;;;4.40;1.93;;;;;;;;;;5043764;28;20293;-82
2022/11/02 10:11:17;;;;;;;5.20;2.93;;;;;;;;;;5032867;28;20702;-94
2022/11/02 10:13:46;;;;;;;7.10;2.40;;;;;;;;;;5022688;28;20209;-91
2022/11/02 10:16:16;;;;;;;6.07;2.17;;;;;;;;;;5044738;28;20210;-91
2022/11/02 10:18:48;;;;;;;4.00;1.67;;;;;;;;;;5057170;28;20296;-90
2022/11/02 10:21:20;;;;;;;7.23;1.93;;;;;;;;;;5049009;28;20233;-89
2022/11/02 10:23:50;;;;;;;5.87;1.93;;;;;;;;;;5044904;28;20201;-90
2022/11/02 10:26:19;;;;;;;5.47;2.10;;;;;;;;;;5034598;28;20214;-90
2022/11/02 10:28:49;;;;;;;5.37;1.90;;;;;;;;;;5034065;28;20721;-90
2022/11/02 10:31:22;;;;;;;5.37;2.20;;;;;;;;;;5032398;28;20230;-91
2022/11/02 10:33:49;;;;;;;3.17;1.90;;;;;;;;;;5032865;28;20222;-90
2022/11/02 10:36:25;;;;;;;7.97;2.20;;;;;;;;;;5032148;28;20248;-90
2022/11/02 10:39:00;;;;;;;4.77;2.07;;;;;;;;;;5032602;28;20206;-91
2022/11/02 10:41:36;;;;;;;5.00;1.70;;;;;;;;;;5032844;28;20240;-90
2022/11/02 10:44:13;;;;;;;4.77;2.20;;;;;;;;;;5033127;28;20191;-91
2022/11/02 10:46:49;;;;;;;7.70;2.27;;;;;;;;;;5032306;28;20243;-91
2022/11/02 10:49:21;;;;;;;7.23;2.23;;;;;;;;;;5032512;28;20195;-91
2022/11/02 10:51:50;;;;;;;8.77;2.30;;;;;;;;;;5031775;28;20706;-90
2022/11/02 10:54:17;;;;;;;4.07;1.80;;;;;;;;;;5026637;28;20600;-91
2022/11/02 10:56:45;;;;;;;6.40;2.17;;;;;;;;;;5012518;28;20258;-91
2022/11/02 10:59:14;;;;;;;4.73;1.80;;;;;;;;;;5012448;28;20944;-91
2022/11/02 11:01:45;;;;;;;8.57;2.20;;;;;;;;;;5012426;28;20243;-90
2022/11/02 11:04:20;;;;;;;12.73;2.23;;;;;;;;;;5019640;28;20238;-92
2022/11/02 11:06:47;;;;;;;6.07;2.07;;;;;;;;;;5013269;28;20238;-90
2022/11/02 11:09:18;;;;;;;8.77;2.33;;;;;;;;;;5013013;28;20222;-91
2022/11/02 11:11:53;;;;;;;9.37;2.40;;;;;;;;;;5031870;28;20307;-91
2022/11/02 11:14:22;;;;;;;7.67;1.90;;;;;;;;;;5033296;28;20205;-92
2022/11/02 11:16:50;;;;;;;6.27;2.20;;;;;;;;;;5032239;28;20234;-91
2022/11/02 11:19:24;;;;;;;8.77;2.13;;;;;;;;;;5019970;28;20208;-92
2022/11/02 11:21:51;;;;;;;6.60;2.17;;;;;;;;;;5024922;28;20247;-90
2022/11/02 11:24:28;;;;;;;3.93;1.87;;;;;;;;;;5021372;28;20583;-90
2022/11/02 11:27:02;;;;;;;8.60;2.30;;;;;;;;;;5012443;28;20234;-91
2022/11/02 11:29:31;;;;;;;6.40;1.77;;;;;;;;;;5012043;28;20196;-91
2022/11/02 11:31:59;;;;;;;3.33;1.80;;;;;;;;;;5013586;28;20715;-89
2022/11/02 11:34:27;;;;;;;8.57;2.87;;;;;;;;;;5012861;28;20211;-91
2022/11/02 11:37:04;;;;;;;4.67;2.13;;;;;;;;;;5015999;28;20242;-90
2022/11/02 11:39:33;;;;;;;7.83;2.87;;;;;;;;;;5016726;28;20187;-91
2022/11/02 11:42:01;;;;;;;5.60;2.17;;;;;;;;;;5017642;28;20271;-90
2022/11/02 11:44:28;;;;;;;5.67;1.97;;;;;;;;;;5021563;28;20207;-92
2022/11/02 11:46:57;;;;;;;3.40;1.67;;;;;;;;;;5040679;28;20608;-90
2022/11/02 11:49:26;;;;;;;4.03;2.00;;;;;;;;;;5016454;28;20233;-90
2022/11/02 11:51:54;;;;;;;6.90;2.03;;;;;;;;;;5016728;28;20239;-90
2022/11/02 11:54:23;;;;;;;4.83;1.77;;;;;;;;;;5017548;28;20208;-91
2022/11/02 11:56:52;;;;;;;4.97;1.67;;;;;;;;;;5016559;28;20243;-91
2022/11/02 11:59:24;;;;;;;3.80;1.63;;;;;;;;;;5016301;28;20215;-90
2022/11/02 12:04:50;;;;;;;3.60;1.83;;;;;;;;;;5024208;28;20176;-92
2022/11/02 12:07:25;;;;;;;5.97;1.70;;;;;;;;;;5043046;28;20215;-90
2022/11/02 12:09:59;;;;;;;5.93;1.73;;;;;;;;;;5073341;28;20202;-90
2022/11/02 12:12:32;;;;;;;5.57;1.90;;;;;;;;;;5078882;28;20232;-90
2022/11/02 12:15:05;;;;;;;3.53;1.73;;;;;;;;;;5065627;28;20183;-91
2022/11/02 12:17:40;;;;;;;3.20;2.00;;;;;;;;;;5051294;28;20212;-91
2022/11/02 12:20:14;;;;;;;5.00;1.70;;;;;;;;;;5041576;28;20202;-91
2022/11/02 12:22:46;;;;;;;4.67;1.97;;;;;;;;;;5034709;28;20241;-91
2022/11/02 12:25:24;;;;;;;4.57;1.70;;;;;;;;;;5035449;28;20195;-91
2022/11/02 12:27:57;;;;;;;4.33;1.83;;;;;;;;;;5020663;28;20239;-91
2022/11/02 12:30:25;;;;;;;4.73;1.60;;;;;;;;;;5015089;28;20223;-90
2022/11/02 12:33:11;;;;;;;7.60;2.00;;;;;;;;;;5014866;28;20795;-91
2022/11/02 12:35:56;;;;;;;4.63;1.83;;;;;;;;;;5016218;28;20233;-89
2022/11/02 12:38:34;;;;;;;6.33;1.73;;;;;;;;;;5004886;28;20235;-90
2022/11/02 12:41:03;;;;;;;3.73;1.60;;;;;;;;;;5015919;28;20230;-90
2022/11/02 12:43:39;;;;;;;6.07;1.87;;;;;;;;;;5014814;28;20239;-91
2022/11/02 12:46:11;;;;;;;4.60;1.70;;;;;;;;;;5015177;28;20195;-90
2022/11/02 12:48:43;;;;;;;4.57;2.30;;;;;;;;;;5016549;28;20199;-90
2022/11/02 12:51:12;;;;;;;3.07;1.63;;;;;;;;;;5028274;28;20605;-90
2022/11/02 12:53:44;;;;;;;2.27;1.60;;;;;;;;;;5019745;28;20204;-90
2022/11/02 12:56:13;;;;;;;7.10;2.17;;;;;;;;;;5015911;28;20246;-91
2022/11/02 12:58:42;;;;;;;7.17;2.27;;;;;;;;;;5028079;28;20218;-90
2022/11/02 13:01:12;;;;;;;4.50;2.10;;;;;;;;;;5034648;28;20227;-91
2022/11/02 13:03:43;;;;;;;6.90;1.83;;;;;;;;;;5035302;28;20274;-89
2022/11/02 13:06:12;;;;;;;7.97;2.20;;;;;;;;;;5027592;28;20203;-90
2022/11/02 13:08:43;;;;;;;5.30;1.57;;;;;;;;;;5014912;28;20290;-90
2022/11/02 13:11:13;;;;;;;5.57;1.70;;;;;;;;;;5023901;28;20231;-90
2022/11/02 13:13:45;;;;;;;7.50;2.10;;;;;;;;;;5033889;28;20428;-91
2022/11/02 13:16:15;;;;;;;4.60;2.20;;;;;;;;;;5033888;28;20297;-90
2022/11/02 13:18:45;;;;;;;5.67;1.77;;;;;;;;;;5034456;28;20693;-90
2022/11/02 13:21:12;;;;;;;5.50;1.90;;;;;;;;;;5019056;28;20321;-90
2022/11/02 13:23:44;;;;;;;7.33;2.47;;;;;;;;;;5020724;28;20719;-90
2022/11/02 13:26:13;;;;;;;6.27;2.00;;;;;;;;;;5023209;28;20639;-91
2022/11/02 13:28:44;;;;;;;5.03;1.93;;;;;;;;;;5023280;28;20211;-89
2022/11/02 13:31:13;;;;;;;6.30;1.97;;;;;;;;;;5015686;28;20224;-90
2022/11/02 13:33:42;;;;;;;5.27;2.07;;;;;;;;;;5014933;28;20217;-90
2022/11/02 13:36:09;;;;;;;5.17;1.50;;;;;;;;;;5013593;28;20206;-90
2022/11/02 13:38:41;;;;;;;5.33;2.17;;;;;;;;;;5013893;28;20211;-90
2022/11/02 13:41:14;;;;;;;5.70;1.60;;;;;;;;;;5021877;28;20233;-83
2022/11/02 13:44:05;;;;;;;4.40;1.70;;;;;;;;;;5032232;28;20568;-82
2022/11/02 13:46:39;;;;;;;4.63;1.67;;;;;;;;;;4997407;28;20234;-82
2022/11/02 13:49:07;;;;;;;5.00;1.60;;;;;;;;;;5013073;28;20191;-82
2022/11/02 13:51:36;;;;;;;6.20;1.90;;;;;;;;;;5027126;28;20240;-84
2022/11/02 13:54:07;;;;;;;5.67;2.17;;;;;;;;;;5052831;28;20201;-84
2022/11/02 13:56:35;;;;;;;4.50;1.90;;;;;;;;;;5052079;28;20233;-82
2022/11/02 13:59:04;;;;;;;5.33;2.00;;;;;;;;;;5031247;28;20214;-82
2022/11/02 14:01:35;;;;;;;6.33;1.80;;;;;;;;;;5034616;28;20686;-92
2022/11/02 14:04:06;;;;;;;7.60;2.20;;;;;;;;;;5038131;28;20207;-93
2022/11/02 14:06:34;;;;;;;3.43;1.67;;;;;;;;;;5032298;28;20230;-90
2022/11/02 14:09:03;;;;;;;5.30;1.73;;;;;;;;;;5018019;28;20204;-90
2022/11/02 14:11:45;;;;;;;7.73;2.47;;;;;;;;;;5013326;28;20239;-92
2022/11/02 14:14:17;;;;;;;4.40;1.70;;;;;;;;;;5014014;28;20191;-91
2022/11/02 14:16:47;;;;;;;8.13;1.90;;;;;;;;;;5013053;28;20238;-91
2022/11/02 14:19:21;;;;;;;3.17;1.50;;;;;;;;;;5013765;28;20198;-88
2022/11/02 14:22:04;;;;;;;9.43;1.87;;;;;;;;;;5012353;28;20325;-84
2022/11/02 14:24:52;;;;;;;3.57;1.67;;;;;;;;;;5012854;28;20211;-85
2022/11/02 14:27:29;;;;;;;4.93;1.80;;;;;;;;;;5012078;28;20840;-84
2022/11/02 14:29:56;;;;;;;8.73;1.83;;;;;;;;;;5012824;28;20203;-85
2022/11/02 14:32:33;;;;;;;5.23;1.50;;;;;;;;;;5011675;28;20231;-85
2022/11/02 14:35:11;;;;;;;4.90;1.60;;;;;;;;;;5012958;28;20246;-91
2022/11/02 14:37:52;;;;;;;5.10;2.77;;;;;;;;;;5012672;28;20247;-92
2022/11/02 14:40:28;;;;;;;6.47;2.20;;;;;;;;;;5012344;28;20238;-91
2022/11/02 14:43:06;;;;;;;6.70;2.33;;;;;;;;;;5013182;28;20241;-92
2022/11/02 14:45:39;;;;;;;7.17;1.90;;;;;;;;;;5013002;28;20195;-91
2022/11/02 14:48:06;;;;;;;5.83;1.87;;;;;;;;;;5012018;28;20235;-92
2022/11/02 14:50:35;;;;;;;5.17;1.77;;;;;;;;;;5013562;28;20231;-89
2022/11/02 14:53:04;;;;;;;4.77;1.80;;;;;;;;;;5012390;28;20242;-91
2022/11/02 14:55:32;;;;;;;5.13;1.97;;;;;;;;;;5014261;28;20195;-93
2022/11/02 14:58:00;;;;;;;4.23;1.77;;;;;;;;;;5012871;28;20261;-91
2022/11/02 15:00:31;;;;;;;7.57;1.80;;;;;;;;;;5013149;28;20223;-91
2022/11/02 15:02:58;;;;;;;6.53;2.10;;;;;;;;;;5012257;28;20235;-90
2022/11/02 15:05:27;;;;;;;5.53;2.23;;;;;;;;;;5012968;28;20215;-90
2022/11/02 15:07:58;;;;;;;12.17;1.80;;;;;;;;;;5012956;28;20235;-87
2022/11/02 15:10:40;;;;;;;5.63;2.30;;;;;;;;;;5014149;28;20573;-84
2022/11/02 15:13:24;;;;;;;7.20;2.27;;;;;;;;;;5016213;28;20238;-82
2022/11/02 15:16:06;;;;;;;2.43;1.37;;;;;;;;;;5016207;28;20206;-84
2022/11/02 15:18:34;;;;;;;9.20;2.60;;;;;;;;;;4994867;28;20235;-82
2022/11/02 15:21:20;;;;;;;5.33;1.90;;;;;;;;;;4995365;28;20224;-82
2022/11/02 15:23:53;;;;;;;2.40;1.80;;;;;;;;;;4995656;28;20227;-82
2022/11/02 15:26:23;;;;;;;4.40;1.80;;;;;;;;;;4996621;28;20212;-82